AirNav   Pilot Hours Calculator
 
 1711 users online  

2OH8 Port-O-John Airport
Derby, Ohio, USA

GOING TO DERBY?


FAA INFORMATION EFFECTIVE 25 MARCH 2021

Location

FAA Identifier: 2OH8
Lat/Long: 39-47-43.2200N 083-13-23.6800W
39-47.720333N 083-13.394667W
39.7953389,-83.2232444
(estimated)
Elevation: 925 ft. / 282 m (estimated)
Variation: 05W (1990)
From city: 2 miles NW of DERBY, OH
Time zone: UTC -4 (UTC -5 during Standard Time)
Zip code: 43146

Airport Operations

Airport use: Private use. Permission required prior to landing
Activation date: 04/1993
Control tower: no
ARTCC: INDIANAPOLIS CENTER
FSS: DAYTON FLIGHT SERVICE STATION
Attendance: UNATNDD
Wind indicator: yes, WIND SOCK
Segmented circle: yes

Airport Communications

WX AWOS-3 at TZR (7 nm NE): 135.925 (614-878-1722)
WX AWOS-3 at LCK (14 nm E): PHONE 614-492-2441
WX AWOS-3PT at UYF (14 nm NW): 120.85 (740-852-2844)
WX AWOS-3 at I23 (16 nm SW): 118.775
WX ASOS at OSU (18 nm N): 121.35 (614-451-2465)
WX ASOS at CMH (19 nm NE): 124.6 (614-338-4083)

Nearby radio navigation aids

VOR radial/distance  VOR name  Freq  Var
XUBr330/(19.7)YELLOW BUD VOR112.5005W
MXQr055/34.6MIDWEST VOR/DME112.9004W
APEr240/36.2APPLETON VORTAC116.7006W

 
NDB name  Hdg/Dist  Freq  Var  ID
BOUTN216/1.723005WBU -... ..-
COBBS296/9.925307WDD -.. -..
COURT HOUSE040/14.041406WCSS -.-. ... ...
CLARK COUNTY104/26.134104WCCJ -.-. -.-. .---

Airport Services

Runway Information

Runway NE/SW

Dimensions: 2500 x 75 ft. / 762 x 23 m
Surface: turf
RUNWAY NE  RUNWAY SW
Traffic pattern: leftleft
Obstructions: 30 ft. pline, marked, 700 ft. from runwaynone

Airport Ownership and Management from official FAA records

Ownership: Privately-owned
Owner: PETER RASMUSSEN
10344 LONDON ROAD
ORIENT, OH 43146
Phone 614-657-2737
Manager: PETER RASMUSSEN
10344 LONDON ROAD
ORIENT, OH 43146
Phone 614-657-2737

Airport Operational Statistics

Aircraft based on the field: 4
Single engine airplanes: 3
Ultralights: 1
    

Additional Remarks

FOR CD CTC COLUMBUS APCH AT 614-338-8537

Instrument Procedures

There are no published instrument procedures at 2OH8.

Some nearby airports with instrument procedures:

KTZR - Bolton Field Airport (7 nm NE)
KLCK - Rickenbacker International Airport (14 nm E)
KUYF - Madison County Airport (14 nm NW)
I23 - Fayette County Airport (16 nm SW)
KOSU - Ohio State University Airport (18 nm N)
KCMH - John Glenn Columbus International Airport (19 nm NE)
 
Loc | Ops | Rwys | IFR | FBO | Links
Com | Nav | Svcs | Stats | Notes
Area around 2OH8 (Port-O-John Airport)
 
Road maps at: MapQuest Bing Google
 
Aerial photo
No photo
 
Sectional chart

 
Airport distance calculator
Flying to Port-O-John Airport? Find the distance to fly.

From to 2OH8

Sunrise and sunset
Times for 21-Apr-2021
 Local
(UTC-4)
 Zulu
(UTC)
Morning civil twilight06:1910:19
Sunrise06:4810:48
Sunset20:1600:16
Evening civil twilight20:4400:44

Current date and time
Zulu (UTC)  21-Apr-2021 15:21:28
Local (UTC-4)  21-Apr-2021 11:21:28
 
METAR
KTZR 
7nm NE 
211450Z 31010G16KT 10SM BKN015 OVC050 01/M02 A3008
KUYF 
14nm NW 
211455Z AUTO 31011G16KT 10SM SCT014 SCT038 OVC065 01/M02 A3007 RMK AO2
KLCK 
14nm E 
211455Z AUTO 30011KT 10SM SCT015 BKN020 OVC026 02/M01 A3007 RMK AO2 T00151015
KI23 
16nm SW 
211455Z AUTO 30013KT 7SM SCT006 SCT019 01/M02 A3008 RMK AO1
KOSU 
18nm N 
211453Z 32010KT 10SM BKN020 OVC060 02/M03 A3007 RMK AO2 SLP189 60000 T00171028 51016
KCMH 
20nm NE 
211451Z 32013KT 10SM SCT017 BKN023 BKN080 02/M02 A3006 RMK AO2 SNE37 SLP186 P0000 60000 T00171017 51016 $
TAF
KLCK 
14nm E 
211130Z 2112/2212 32011KT P6SM OVC011 FM211500 32010KT P6SM BKN022 FM211700 32012KT P6SM SCT035 FM220100 28007KT P6SM SCT060
KCMH 
20nm NE 
211156Z 2112/2212 32011KT 6SM -SN BR BKN014 OVC019 FM211400 32009KT P6SM BKN013 FM211500 32010KT P6SM BKN022 FM211700 32012KT P6SM SCT035 FM220100 28007KT P6SM SCT060
NOTAMs
Click for the latest NOTAMs
NOTAMs are issued by the DoD/FAA and will open in a separate window not controlled by AirNav.

 

 
 

Would you like to see your business listed on this page?

 If your business provides an interesting product or service to pilots, flight crews, aircraft, or users of the Port-O-John Airport, you should consider listing it here.  To start the listing process, click on the button below
 
Add a business
 

Other Pages about Port-O-John Airport

Update a link
 
Copyright © AirNav, LLC. All rights reserved. Privacy Policy  Contact